Time;durP1;ratioP1;P1;durP2;ratioP2;P2;SDS_P1;SDS_P2;PMS_P1;PMS_P2;Temp;Humidity;BMP_temperature;BMP_pressure;BME280_temperature;BME280_humidity;BME280_pressure;Samples;Min_cycle;Max_cycle;Signal;HPM_P1;HPM_P2
2023/10/11 00:02:55;;;;;;;30.05;14.30;;;16.90;19.60;;;;;;5094349;28;20131;-83
2023/10/11 00:05:22;;;;;;;27.10;12.93;;;;;;;;;;5077614;28;20136;-79
2023/10/11 00:07:48;;;;;;;30.67;14.57;;;;;;;;;;5111006;28;20101;-83
2023/10/11 00:10:22;;;;;;;32.00;13.43;;;;;;;;;;5110752;28;20135;-86
2023/10/11 00:12:50;;;;;;;;;;;17.20;29.80;;;;;;5111111;28;20043;-84
2023/10/11 00:15:16;;;;;;;38.22;14.48;;;;;;;;;;5110547;28;20399;-84
2023/10/11 00:17:46;;;;;;;33.78;13.52;;;;;;;;;;5093935;28;20031;-84
2023/10/11 00:20:28;;;;;;;39.92;13.45;;;17.20;27.40;;;;;;5110823;28;20392;-81
2023/10/11 00:22:55;;;;;;;35.63;14.93;;;;;;;;;;5078478;28;20139;-85
2023/10/11 00:25:24;;;;;;;33.03;14.15;;;;;;;;;;5093569;28;20043;-84
2023/10/11 00:27:51;;;;;;;36.33;14.35;;;17.10;27.50;;;;;;5093153;28;20480;-82
2023/10/11 00:30:17;;;;;;;49.05;16.10;;;17.00;43.30;;;;;;5113444;28;20047;-82
2023/10/11 00:32:47;;;;;;;34.22;14.30;;;17.20;25.30;;;;;;5114407;28;20035;-81
2023/10/11 00:35:19;;;;;;;35.15;14.65;;;;;;;;;;5114525;28;20047;-83
2023/10/11 00:37:51;;;;;;;31.13;14.77;;;;;;;;;;5097595;28;20039;-82
2023/10/11 00:40:25;;;;;;;38.85;14.73;;;;;;;;;;5114726;28;20048;-90
2023/10/11 00:42:54;;;;;;;31.48;14.50;;;;;;;;;;5097865;28;20373;-91
2023/10/11 00:45:22;;;;;;;38.97;16.80;;;;;;;;;;5114747;28;20048;-89
2023/10/11 00:47:51;;;;;;;34.05;15.98;;;;;;;;;;5115832;28;20043;-80
2023/10/11 00:50:17;;;;;;;30.27;16.58;;;;;;;;;;5115166;28;20115;-87
2023/10/11 00:52:45;;;;;;;30.33;15.90;;;;;;;;;;5097988;28;20042;-83
2023/10/11 00:55:19;;;;;;;35.33;15.52;;;;;;;;;;5097955;28;20054;-87
2023/10/11 00:57:48;;;;;;;33.85;15.55;;;;;;;;;;5114852;28;20495;-90
2023/10/11 01:00:21;;;;;;;38.47;16.15;;;17.10;31.90;;;;;;5098098;28;20083;-88
2023/10/11 01:02:47;;;;;;;31.08;16.15;;;;;;;;;;5115077;28;20066;-86
2023/10/11 01:05:14;;;;;;;39.53;17.13;;;17.10;26.50;;;;;;5081376;28;20130;-82
2023/10/11 01:07:40;;;;;;;41.08;15.25;;;;;;;;;;5114724;28;20515;-86
2023/10/11 01:10:07;;;;;;;29.85;14.05;;;;;;;;;;5114289;28;20053;-85
2023/10/11 01:12:33;;;;;;;34.53;15.55;;;;;;;;;;5097173;28;20101;-84
2023/10/11 01:14:59;;;;;;;29.70;14.40;;;17.10;49.00;;;;;;5115911;28;20047;-87
2023/10/11 01:17:35;;;;;;;34.75;17.35;;;16.90;32.10;;;;;;5114408;28;20039;-84
2023/10/11 01:20:01;;;;;;;29.48;14.52;;;;;;;;;;5114234;28;20440;-84
2023/10/11 01:22:28;;;;;;;37.88;14.43;;;;;;;;;;5080216;28;20082;-84
2023/10/11 01:24:55;;;;;;;32.20;14.40;;;;;;;;;;5100218;27;20050;-84
2023/10/11 01:27:25;;;;;;;32.22;14.57;;;17.20;32.30;;;;;;5117078;27;20039;-84
2023/10/11 01:29:52;;;;;;;35.53;13.52;;;;;;;;;;5084220;27;20043;-83
2023/10/11 01:32:18;;;;;;;27.65;13.25;;;;;;;;;;5100374;27;20121;-84
2023/10/11 01:34:44;;;;;;;27.55;14.02;;;;;;;;;;5117257;27;20043;-83
2023/10/11 01:37:10;;;;;;;26.50;12.90;;;16.90;52.50;;;;;;5100378;27;20043;-81
2023/10/11 01:39:36;;;;;;;28.25;13.48;;;;;;;;;;5099892;27;20042;-84
2023/10/11 01:42:02;;;;;;;22.02;13.07;;;;;;;;;;5083217;27;20047;-86
2023/10/11 01:44:30;;;;;;;30.08;13.63;;;;;;;;;;5083062;27;20148;-86
2023/10/11 01:46:57;;;;;;;44.75;15.15;;;;;;;;;;5116481;27;20043;-84
2023/10/11 01:49:23;;;;;;;35.03;15.73;;;;;;;;;;5135500;27;20054;-83
2023/10/11 01:51:49;;;;;;;29.95;13.07;;;;;;;;;;5117673;27;20047;-83
2023/10/11 01:54:15;;;;;;;39.00;16.33;;;16.90;31.40;;;;;;5135219;27;20043;-84
2023/10/11 01:56:44;;;;;;;30.88;13.18;;;16.80;33.10;;;;;;5135611;27;20114;-90
2023/10/11 01:59:12;;;;;;;35.60;13.43;;;;;;;;;;5135444;27;20107;-86
2023/10/11 02:01:41;;;;;;;36.97;13.80;;;;;;;;;;5135511;27;20047;-84
2023/10/11 02:04:17;;;;;;;32.80;13.85;;;17.00;37.50;;;;;;5116610;27;20140;-88
2023/10/11 02:06:43;;;;;;;32.42;12.95;;;16.80;53.50;;;;;;5117032;27;20048;-88
2023/10/11 02:09:11;;;;;;;35.08;13.93;;;;;;;;;;5116716;27;20100;-85
2023/10/11 02:11:41;;;;;;;29.35;12.95;;;;;;;;;;5100071;27;20040;-88
2023/10/11 02:14:07;;;;;;;32.40;12.52;;;;;;;;;;5100486;27;20051;-82
2023/10/11 02:16:33;;;;;;;28.33;13.13;;;16.60;53.80;;;;;;5116563;27;20050;-89
2023/10/11 02:19:00;;;;;;;32.63;12.43;;;;;;;;;;5100184;27;20051;-89
2023/10/11 02:21:29;;;;;;;43.03;13.82;;;16.90;38.70;;;;;;5116760;27;20047;-90
2023/10/11 02:23:56;;;;;;;29.40;12.90;;;;;;;;;;5116238;27;20407;-90
2023/10/11 02:26:29;;;;;;;39.53;14.50;;;;;;;;;;5134545;27;20126;-91
2023/10/11 02:28:58;;;;;;;34.30;12.70;;;16.70;54.60;;;;;;5134465;27;20414;-83
2023/10/11 02:31:27;;;;;;;26.58;12.25;;;;;;;;;;5115895;27;20130;-83
2023/10/11 02:34:04;;;;;;;32.88;13.50;;;16.60;39.00;;;;;;5115786;27;20047;-82
2023/10/11 02:36:34;;;;;;;30.75;12.00;;;;;;;;;;5115901;27;20044;-82
2023/10/11 02:39:05;;;;;;;30.20;11.85;;;;;;;;;;5115680;27;20096;-84
2023/10/11 02:41:32;;;;;;;29.70;13.57;;;;;;;;;;5134570;27;20053;-84
2023/10/11 02:43:57;;;;;;;37.08;13.40;;;16.60;53.60;;;;;;5115576;27;20039;-85
2023/10/11 02:46:24;;;;;;;37.40;12.55;;;16.80;54.20;;;;;;5115686;27;20048;-84
2023/10/11 02:49:05;;;;;;;27.40;12.40;;;16.80;54.20;;;;;;5098613;27;20088;-86
2023/10/11 02:51:33;;;;;;;29.25;13.25;;;;;;;;;;5098146;28;20051;-86
2023/10/11 02:54:04;;;;;;;35.17;13.18;;;16.60;41.00;;;;;;5098886;27;20043;-82
2023/10/11 02:56:46;;;;;;;35.22;13.85;;;16.80;39.60;;;;;;5098158;27;20085;-83
2023/10/11 02:59:19;;;;;;;21.27;11.40;;;;;;;;;;5134156;27;20086;-85
2023/10/11 03:01:59;;;;;;;40.73;12.53;;;;;;;;;;5132968;27;20435;-86
2023/10/11 03:04:41;;;;;;;40.80;12.13;;;16.80;39.70;;;;;;5136358;27;20376;-85
2023/10/11 03:07:23;;;;;;;32.20;12.35;;;;;;;;;;5116101;27;20035;-86
2023/10/11 03:09:50;;;;;;;33.97;12.77;;;;;;;;;;5083748;27;20046;-81
2023/10/11 03:12:20;;;;;;;36.58;11.98;;;;;;;;;;5115462;27;20097;-87
2023/10/11 03:14:46;;;;;;;25.63;12.05;;;16.60;55.90;;;;;;5098546;28;20046;-86
2023/10/11 03:17:16;;;;;;;29.77;12.73;;;16.40;55.90;;;;;;5099667;28;20054;-89
2023/10/11 03:19:43;;;;;;;35.90;11.07;;;16.70;35.90;;;;;;5082285;27;20051;-89
2023/10/11 03:22:11;;;;;;;31.25;11.35;;;16.50;39.30;;;;;;5133873;27;20035;-88
2023/10/11 03:24:40;;;;;;;24.52;12.20;;;;;;;;;;5082215;28;20422;-87
2023/10/11 03:27:10;;;;;;;26.38;11.07;;;16.70;35.60;;;;;;5115854;27;20103;-87
2023/10/11 03:29:37;;;;;;;28.95;12.43;;;;;;;;;;5118867;27;20042;-83
2023/10/11 03:32:05;;;;;;;28.98;12.10;;;;;;;;;;5119264;27;20126;-84
2023/10/11 03:34:32;;;;;;;39.55;12.23;;;;;;;;;;5118920;27;20030;-85
2023/10/11 03:36:59;;;;;;;24.48;11.00;;;;;;;;;;5119588;28;20050;-84
2023/10/11 03:39:39;;;;;;;30.98;11.10;;;16.80;56.80;;;;;;5098134;28;20096;-85
2023/10/11 03:42:14;;;;;;;34.17;11.13;;;16.80;35.50;;;;;;5100474;28;20085;-86
2023/10/11 03:44:44;;;;;;;23.80;10.70;;;;;;;;;;5098767;28;20035;-87
2023/10/11 03:47:14;;;;;;;25.83;11.35;;;;;;;;;;5115164;27;20126;-87
2023/10/11 03:52:16;;;;;;;35.15;10.65;;;;;;;;;;5116487;28;20054;-83
2023/10/11 03:54:45;;;;;;;36.17;10.57;;;;;;;;;;5082499;28;20384;-84
2023/10/11 03:57:11;;;;;;;28.27;10.15;;;;;;;;;;5117239;27;20049;-88
2023/10/11 03:59:47;;;;;;;26.27;11.52;;;;;;;;;;5153804;27;20084;-85
2023/10/11 04:02:13;;;;;;;36.40;11.82;;;;;;;;;;5118202;27;20047;-88
2023/10/11 04:04:42;;;;;;;22.30;10.10;;;;;;;;;;5120079;27;20074;-86
2023/10/11 04:07:12;;;;;;;25.48;10.32;;;16.70;50.30;;;;;;5119492;27;20047;-85
2023/10/11 04:09:38;;;;;;;28.58;11.13;;;;;;;;;;5102338;27;20043;-91
2023/10/11 04:12:05;;;;;;;28.05;10.55;;;16.90;55.00;;;;;;5118639;27;20047;-84
2023/10/11 04:14:43;;;;;;;25.40;10.02;;;16.50;39.30;;;;;;5118873;27;20062;-89
2023/10/11 04:17:26;;;;;;;31.30;11.20;;;;;;;;;;5105176;27;20031;-92
2023/10/11 04:22:49;;;;;;;22.75;10.60;;;;;;;;;;5117952;27;20039;-90
2023/10/11 04:25:18;;;;;;;26.27;11.27;;;;;;;;;;5118126;27;20574;-83
2023/10/11 04:30:26;;;;;;;25.80;9.73;;;16.30;54.30;;;;;;5134503;27;20050;-87
2023/10/11 04:32:56;;;;;;;22.02;9.23;;;;;;;;;;5122121;27;20066;-92
2023/10/11 04:35:25;;;;;;;26.65;9.98;;;;;;;;;;5121288;27;20039;-90
2023/10/11 04:37:54;;;;;;;23.55;10.38;;;16.50;37.90;;;;;;5138890;27;20514;-87
2023/10/11 04:40:38;;;;;;;29.77;11.63;;;16.60;33.20;;;;;;5086960;27;20046;-87
2023/10/11 04:43:05;;;;;;;30.35;10.90;;;;;;;;;;5136518;27;20414;-89
2023/10/11 04:45:44;;;;;;;24.30;10.65;;;;;;;;;;5118203;27;20139;-91
2023/10/11 04:48:29;;;;;;;21.88;9.35;;;16.70;38.20;;;;;;5101272;27;20406;-91
2023/10/11 05:04:14;;;;;;;20.30;8.68;;;;;;;;;;5126917;27;20164;-89
2023/10/11 05:06:45;;;;;;;22.73;9.63;;;16.80;37.10;;;;;;5117540;27;20055;-84
2023/10/11 05:09:29;;;;;;;33.33;9.13;;;;;;;;;;5100729;27;20079;-82
2023/10/11 05:12:07;;;;;;;28.40;9.57;;;16.70;32.00;;;;;;5108239;27;20038;-85
2023/10/11 05:14:40;;;;;;;27.70;10.35;;;16.60;53.00;;;;;;5137243;27;20398;-80
2023/10/11 05:22:35;;;;;;;34.05;10.75;;;;;;;;;;5116920;27;20054;-79
2023/10/11 05:30:12;;;;;;;32.55;10.18;;;;;;;;;;5137091;27;20049;-85
2023/10/11 05:32:49;;;;;;;26.00;9.63;;;16.60;52.60;;;;;;5120838;27;20463;-81
2023/10/11 05:51:26;;;;;;;23.08;10.32;;;;;;;;;;5137174;27;20057;-82
2023/10/11 05:53:54;;;;;;;26.70;10.45;;;16.70;34.50;;;;;;5121189;27;20088;-80
2023/10/11 05:56:23;;;;;;;26.52;9.88;;;;;;;;;;5137123;27;20119;-83
2023/10/11 05:58:51;;;;;;;33.55;11.15;;;16.90;33.60;;;;;;5120544;27;20041;-84
2023/10/11 06:01:21;;;;;;;27.13;10.88;;;;;;;;;;5136718;27;20053;-84
2023/10/11 06:03:51;;;;;;;23.67;10.35;;;;;;;;;;5102423;27;20050;-82
2023/10/11 06:06:32;;;;;;;24.38;9.75;;;;;;;;;;5075675;27;20075;-86
2023/10/11 06:08:59;;;;;;;26.48;10.88;;;16.80;28.40;;;;;;5098741;27;20043;-84
2023/10/11 06:11:33;;;;;;;24.73;10.02;;;16.70;33.70;;;;;;5098522;27;20479;-84
2023/10/11 06:14:06;;;;;;;20.45;10.43;;;;;;;;;;5116169;27;20448;-84
2023/10/11 06:16:39;;;;;;;24.38;10.10;;;;;;;;;;5117584;27;20099;-84
2023/10/11 06:19:25;;;;;;;34.30;10.63;;;;;;;;;;5135865;27;20075;-84
2023/10/11 06:21:59;;;;;;;25.50;10.95;;;16.90;32.10;;;;;;5122022;27;20045;-88
2023/10/11 06:24:32;;;;;;;24.98;10.13;;;16.70;53.90;;;;;;5115013;27;20392;-83
2023/10/11 06:28:09;;;;;;;22.45;9.95;;;16.80;35.00;;;;;;5104079;28;20054;-85
2023/10/11 06:29:46;;;;;;;27.45;10.63;;;;;;;;;;5110887;27;20135;-86
2023/10/11 06:32:18;;;;;;;24.95;10.38;;;16.70;28.80;;;;;;5127229;27;20113;-83
2023/10/11 06:34:47;;;;;;;18.35;10.77;;;;;;;;;;5099965;28;20108;-82
2023/10/11 06:37:17;;;;;;;26.35;11.75;;;;;;;;;;5100614;28;20055;-82
2023/10/11 06:42:31;;;;;;;24.63;10.60;;;17.00;31.40;;;;;;5131341;27;20066;-84
2023/10/11 06:45:01;;;;;;;21.60;10.63;;;17.10;37.10;;;;;;5097104;27;20122;-80
2023/10/11 06:47:37;;;;;;;15.65;9.13;;;;;;;;;;5093767;28;20138;-84
2023/10/11 06:50:11;;;;;;;23.80;9.95;;;17.00;37.10;;;;;;5081739;28;20040;-83
2023/10/11 06:52:43;;;;;;;26.45;9.73;;;;;;;;;;5082531;28;20056;-84
2023/10/11 06:57:45;;;;;;;25.67;9.82;;;;;;;;;;5094761;28;20942;-83
2023/10/11 07:00:24;;;;;;;23.90;9.80;;;;;;;;;;5073334;28;20526;-83
2023/10/11 07:05:46;;;;;;;22.13;8.80;;;17.10;33.70;;;;;;5077886;28;20083;-90
2023/10/11 07:08:20;;;;;;;20.85;9.60;;;;;;;;;;5098737;28;20108;-83
2023/10/11 07:11:02;;;;;;;21.20;10.05;;;17.20;36.40;;;;;;5078883;28;20043;-86
2023/10/11 07:13:54;;;;;;;22.98;9.65;;;;;;;;;;5081213;28;20036;-78
2023/10/11 07:16:19;;;;;;;20.10;9.00;;;17.10;34.10;;;;;;5084734;28;20121;-79
2023/10/11 07:18:54;;;;;;;25.15;9.82;;;17.20;37.40;;;;;;5059769;28;20075;-87
2023/10/11 07:21:21;;;;;;;24.20;10.18;;;;;;;;;;5082405;28;20101;-84
2023/10/11 07:29:02;;;;;;;23.05;10.05;;;17.30;37.40;;;;;;5098751;28;20049;-84
2023/10/11 07:31:37;;;;;;;23.85;10.02;;;;;;;;;;5099750;28;20504;-84
2023/10/11 07:34:10;;;;;;;28.42;9.10;;;17.30;52.30;;;;;;5091462;28;20163;-84
2023/10/11 07:36:38;;;;;;;26.80;10.73;;;17.40;36.50;;;;;;5081457;28;20051;-80
2023/10/11 07:39:14;;;;;;;21.55;10.18;;;;;;;;;;5082821;28;20047;-80
2023/10/11 07:41:44;;;;;;;27.02;9.48;;;17.40;51.80;;;;;;5085806;28;20126;-80
2023/10/11 07:44:11;;;;;;;23.20;10.20;;;17.30;52.30;;;;;;5102317;28;20078;-84
2023/10/11 07:46:40;;;;;;;29.00;10.07;;;;;;;;;;5064602;28;20040;-84
2023/10/11 07:49:07;;;;;;;21.10;9.70;;;17.40;31.60;;;;;;5067619;28;20044;-83
2023/10/11 07:51:39;;;;;;;21.42;9.27;;;;;;;;;;5102784;28;20056;-81
2023/10/11 07:54:19;;;;;;;22.40;9.50;;;;;;;;;;5067188;28;20047;-81
2023/10/11 07:56:46;;;;;;;22.60;9.88;;;;;;;;;;5086368;28;20217;-80
2023/10/11 07:59:15;;;;;;;23.20;10.50;;;;;;;;;;5097096;27;20035;-82
2023/10/11 08:01:45;;;;;;;18.20;10.50;;;;;;;;;;5099568;28;20052;-85
2023/10/11 08:04:21;;;;;;;25.95;9.68;;;17.50;26.00;;;;;;5069081;28;20048;-80
2023/10/11 08:06:47;;;;;;;20.90;9.35;;;;;;;;;;5068294;28;20058;-82
2023/10/11 08:09:21;;;;;;;30.73;11.60;;;;;;;;;;5077339;28;20043;-80
2023/10/11 08:11:57;;;;;;;21.35;10.18;;;;;;;;;;5082734;28;20120;-79
2023/10/11 08:14:29;;;;;;;17.00;9.38;;;;;;;;;;5100674;28;20055;-81
2023/10/11 08:16:56;;;;;;;24.65;10.38;;;;;;;;;;5085074;28;20458;-81
2023/10/11 08:19:31;;;;;;;20.73;9.50;;;;;;;;;;5066164;28;20082;-83
2023/10/11 08:21:58;;;;;;;21.20;9.07;;;;;;;;;;5101575;28;20134;-79
2023/10/11 08:24:30;;;;;;;25.35;9.90;;;;;;;;;;5083040;28;20446;-81
2023/10/11 08:27:08;;;;;;;22.33;10.63;;;;;;;;;;5080942;28;21281;-82
2023/10/11 08:29:37;;;;;;;18.13;8.80;;;;;;;;;;5066717;28;20052;-89
2023/10/11 08:32:06;;;;;;;16.70;8.77;;;;;;;;;;5050742;28;20036;-88
2023/10/11 08:34:33;;;;;;;26.17;10.45;;;;;;;;;;5076087;28;20102;-82
2023/10/11 08:37:00;;;;;;;27.58;9.82;;;;;;;;;;5068090;28;20051;-87
2023/10/11 08:39:35;;;;;;;19.52;8.68;;;;;;;;;;5083525;28;20051;-88
2023/10/11 08:42:14;;;;;;;13.63;7.90;;;;;;;;;;5067651;28;20040;-87
2023/10/11 08:44:45;;;;;;;20.23;9.40;;;;;;;;;;5101630;28;20108;-90
2023/10/11 08:47:16;;;;;;;16.50;8.88;;;;;;;;;;5068899;28;20051;-87
2023/10/11 08:49:51;;;;;;;13.38;7.10;;;;;;;;;;5066905;28;20048;-86
2023/10/11 08:52:28;;;;;;;10.68;7.25;;;;;;;;;;5061710;28;20498;-88
2023/10/11 08:54:55;;;;;;;12.18;7.07;;;;;;;;;;5084334;28;20465;-88
2023/10/11 08:57:25;;;;;;;14.77;7.68;;;;;;;;;;5066825;28;20412;-88
2023/10/11 08:59:57;;;;;;;10.07;5.85;;;;;;;;;;5067593;28;20396;-88
2023/10/11 09:02:26;;;;;;;8.75;6.60;;;;;;;;;;5084598;28;20059;-86
2023/10/11 09:05:28;;;;;;;14.95;6.65;;;;;;;;;;5068052;28;20173;-86
2023/10/11 09:07:57;;;;;;;10.88;6.93;;;;;;;;;;5083360;28;20048;-87
2023/10/11 09:10:27;;;;;;;10.85;6.88;;;;;;;;;;5083304;28;20048;-79
2023/10/11 09:12:58;;;;;;;14.52;6.20;;;17.50;21.80;;;;;;5081847;28;20123;-82
2023/10/11 09:15:45;;;;;;;13.65;6.60;;;17.60;21.30;;;;;;5065656;28;20054;-87
2023/10/11 09:18:18;;;;;;;9.20;5.50;;;;;;;;;;5083460;28;20028;-83
2023/10/11 09:20:56;;;;;;;8.23;6.03;;;;;;;;;;5066436;28;20043;-83
2023/10/11 09:23:38;;;;;;;10.88;5.85;;;17.60;17.00;;;;;;5087909;28;20047;-87
2023/10/11 09:26:05;;;;;;;15.23;6.07;;;17.60;17.90;;;;;;5102474;28;20415;-79
2023/10/11 09:28:40;;;;;;;11.30;5.57;;;;;;;;;;5082658;27;20572;-86
2023/10/11 09:31:11;;;;;;;11.30;6.50;;;17.70;11.50;;;;;;5084077;28;20125;-85
2023/10/11 09:33:47;;;;;;;10.93;6.60;;;17.70;18.40;;;;;;5100845;27;20047;-83
2023/10/11 09:36:16;;;;;;;16.40;6.20;;;;;;;;;;5100088;28;20047;-89
2023/10/11 09:38:42;;;;;;;15.45;6.75;;;;;;;;;;5096881;28;20050;-86
2023/10/11 09:41:09;;;;;;;14.70;7.40;;;;;;;;;;5084824;28;20094;-88
2023/10/11 09:43:43;;;;;;;10.80;6.57;;;17.70;19.70;;;;;;5100561;28;20082;-85
2023/10/11 09:46:13;;;;;;;13.70;5.50;;;17.70;16.60;;;;;;5102061;28;20666;-81
2023/10/11 09:48:40;;;;;;;10.13;5.25;;;;;;;;;;5084727;28;20104;-84
2023/10/11 09:51:13;;;;;;;13.90;5.88;;;17.90;18.70;;;;;;5067328;28;20391;-83
2023/10/11 09:53:49;;;;;;;14.43;5.63;;;;;;;;;;5083149;28;20036;-87
2023/10/11 09:56:35;;;;;;;11.23;6.15;;;;;;;;;;5083131;28;20042;-84
2023/10/11 09:59:13;;;;;;;9.65;5.28;;;17.90;19.80;;;;;;5079411;28;20043;-83
2023/10/11 10:01:42;;;;;;;9.57;5.57;;;;;;;;;;5100810;28;20415;-79
2023/10/11 10:04:09;;;;;;;14.75;6.57;;;;;;;;;;5083723;28;20035;-83
2023/10/11 10:06:35;;;;;;;15.38;5.78;;;;;;;;;;5061227;28;20506;-87
2023/10/11 10:09:16;;;;;;;10.38;6.07;;;18.10;10.90;;;;;;5087348;28;20089;-82
2023/10/11 10:12:09;;;;;;;8.20;5.53;;;;;;;;;;5098880;28;20043;-79
2023/10/11 10:14:38;;;;;;;20.00;7.85;;;17.90;20.00;;;;;;5098295;27;20052;-78
2023/10/11 10:17:12;;;;;;;12.20;6.72;;;18.10;21.00;;;;;;5064908;28;20520;-84
2023/10/11 10:19:43;;;;;;;17.25;6.28;;;18.10;21.80;;;;;;5072280;28;20104;-78
2023/10/11 10:22:27;;;;;;;14.07;5.97;;;18.00;15.00;;;;;;5092809;28;20063;-79
2023/10/11 10:24:56;;;;;;;7.35;5.47;;;17.80;21.40;;;;;;5064591;28;20056;-81
2023/10/11 10:27:35;;;;;;;9.45;5.40;;;;;;;;;;5076303;28;20054;-81
2023/10/11 10:30:08;;;;;;;16.20;6.43;;;;;;;;;;5082381;28;20051;-84
2023/10/11 10:33:01;;;;;;;11.68;5.80;;;;;;;;;;5084226;28;20110;-80
2023/10/11 10:35:36;;;;;;;14.20;5.72;;;;;;;;;;5090745;28;20043;-79
2023/10/11 10:38:09;;;;;;;7.15;4.35;;;18.30;25.30;;;;;;5082918;28;21434;-83
2023/10/11 10:40:45;;;;;;;9.85;5.78;;;18.30;22.20;;;;;;5082150;28;20589;-79
2023/10/11 10:43:23;;;;;;;16.38;5.15;;;18.20;38.50;;;;;;5099781;28;20395;-81
2023/10/11 10:45:53;;;;;;;10.52;4.20;;;;;;;;;;5100889;28;20835;-81
2023/10/11 10:48:23;;;;;;;11.35;4.45;;;18.40;23.00;;;;;;5092335;27;20054;-79
2023/10/11 10:51:01;;;;;;;11.73;4.75;;;;;;;;;;5080197;28;20131;-82
2023/10/11 10:53:37;;;;;;;11.68;4.40;;;;;;;;;;5094493;27;20130;-80
2023/10/11 10:56:03;;;;;;;9.75;4.68;;;;;;;;;;5076134;28;20487;-84
2023/10/11 10:58:29;;;;;;;10.32;4.32;;;18.70;25.50;;;;;;5091481;27;20101;-82
2023/10/11 11:00:59;;;;;;;8.23;4.93;;;18.60;30.60;;;;;;5075894;27;20048;-83
2023/10/11 11:03:31;;;;;;;10.02;4.55;;;18.60;14.60;;;;;;5078215;28;20096;-79
2023/10/11 11:06:03;;;;;;;7.80;4.85;;;;;;;;;;5058764;28;20043;-80
2023/10/11 11:08:37;;;;;;;8.32;4.50;;;18.80;15.40;;;;;;5089069;28;20047;-84
2023/10/11 11:11:19;;;;;;;9.75;4.45;;;18.60;9.50;;;;;;5070434;28;20044;-80
2023/10/11 11:13:47;;;;;;;7.05;3.75;;;;;;;;;;5088012;28;20281;-80
2023/10/11 11:16:29;;;;;;;7.35;3.53;;;18.50;15.10;;;;;;5075425;27;20414;-82
2023/10/11 11:19:01;;;;;;;6.53;3.20;;;;;;;;;;5089063;27;20062;-80
2023/10/11 11:21:29;;;;;;;8.40;3.30;;;18.50;13.10;;;;;;5091748;28;20039;-78
2023/10/11 11:23:57;;;;;;;7.80;3.35;;;;;;;;;;5080125;28;20082;-83
2023/10/11 11:26:24;;;;;;;6.15;3.67;;;;;;;;;;5095599;28;20444;-81
2023/10/11 11:28:51;;;;;;;17.02;4.47;;;;;;;;;;5058801;28;20032;-82
2023/10/11 11:34:07;;;;;;;10.13;4.47;;;;;;;;;;5072138;28;20047;-78
2023/10/11 11:36:35;;;;;;;7.75;4.10;;;;;;;;;;5066869;28;20576;-84
2023/10/11 11:39:24;;;;;;;11.70;3.78;;;18.80;5.40;;;;;;5072116;28;20051;-79
2023/10/11 11:41:52;;;;;;;10.77;4.18;;;;;;;;;;5068436;28;20443;-82
2023/10/11 11:44:22;;;;;;;7.07;3.13;;;18.70;7.10;;;;;;5096336;28;20130;-82
2023/10/11 11:46:54;;;;;;;10.10;3.67;;;18.80;6.80;;;;;;5091683;28;20032;-83
2023/10/11 11:49:24;;;;;;;4.65;2.92;;;18.60;7.10;;;;;;5093329;28;20136;-83
2023/10/11 11:51:51;;;;;;;8.18;3.97;;;18.70;19.00;;;;;;5096510;28;20048;-86
2023/10/11 11:54:19;;;;;;;8.57;3.72;;;18.80;6.70;;;;;;5049097;28;20458;-83
2023/10/11 11:56:46;;;;;;;6.85;3.80;;;18.70;4.10;;;;;;5065178;28;20048;-82
2023/10/11 11:59:18;;;;;;;6.40;3.83;;;18.70;18.00;;;;;;5082010;28;20051;-84
2023/10/11 12:01:52;;;;;;;8.70;3.25;;;;;;;;;;5077778;28;20055;-87
2023/10/11 12:04:29;;;;;;;7.82;3.58;;;18.90;20.00;;;;;;5097339;28;20048;-85
2023/10/11 12:07:01;;;;;;;10.50;3.90;;;18.80;9.60;;;;;;5081233;28;20039;-83
2023/10/11 12:09:33;;;;;;;7.40;3.53;;;18.90;8.90;;;;;;5094515;28;20086;-83
2023/10/11 12:12:05;;;;;;;11.43;3.90;;;;;;;;;;5090818;28;20112;-86
2023/10/11 12:14:38;;;;;;;11.73;3.72;;;18.90;10.00;;;;;;5069246;28;20472;-83
2023/10/11 12:17:14;;;;;;;;;;;19.00;11.90;;;;;;5078719;28;20059;-83
2023/10/11 12:19:44;;;;;;;11.25;3.90;;;;;;;;;;5061723;28;19927;-84
2023/10/11 12:22:13;;;;;;;7.68;3.15;;;18.90;8.20;;;;;;5096989;28;20449;-87
2023/10/11 12:24:44;;;;;;;11.77;4.35;;;;;;;;;;5081070;27;20059;-82
2023/10/11 12:27:13;;;;;;;5.72;3.20;;;;;;;;;;5083712;27;20047;-86
2023/10/11 12:29:40;;;;;;;7.18;3.67;;;;;;;;;;5092365;27;20075;-82
2023/10/11 12:32:07;;;;;;;7.43;3.78;;;;;;;;;;5095393;27;20040;-82
2023/10/11 12:34:33;;;;;;;5.97;3.78;;;;;;;;;;5079985;27;20488;-85
2023/10/11 12:37:02;;;;;;;12.93;4.28;;;;;;;;;;5077827;28;20039;-86
2023/10/11 12:39:33;;;;;;;13.13;4.68;;;;;;;;;;5082280;28;20044;-85
2023/10/11 12:41:59;;;;;;;5.75;3.28;;;;;;;;;;5097182;27;20051;-85
2023/10/11 12:44:28;;;;;;;8.80;3.22;;;;;;;;;;5082803;28;20143;-84
2023/10/11 12:46:54;;;;;;;7.55;3.65;;;;;;;;;;5081873;28;20032;-84
2023/10/11 12:49:20;;;;;;;8.65;3.70;;;;;;;;;;5062834;27;20035;-86
2023/10/11 12:51:50;;;;;;;6.75;3.42;;;;;;;;;;5080039;28;20036;-86
2023/10/11 12:54:19;;;;;;;6.13;3.05;;;19.00;1.00;;;;;;5100000;27;21358;-87
2023/10/11 12:56:45;;;;;;;5.80;3.55;;;;;;;;;;5058504;28;20027;-87
2023/10/11 12:59:15;;;;;;;11.35;3.45;;;;;;;;;;5081198;27;20640;-84
2023/10/11 13:01:49;;;;;;;13.13;3.35;;;;;;;;;;5082434;28;20043;-86
2023/10/11 13:04:23;;;;;;;5.50;2.53;;;;;;;;;;5079278;27;20074;-89
2023/10/11 13:06:50;;;;;;;8.75;3.28;;;;;;;;;;5100888;27;20777;-84
2023/10/11 13:09:27;;;;;;;10.57;2.78;;;;;;;;;;5094672;27;20036;-84
2023/10/11 13:11:57;;;;;;;8.50;3.08;;;;;;;;;;5099579;27;20434;-85
2023/10/11 13:14:24;;;;;;;9.27;3.72;;;18.90;1.00;;;;;;5093153;27;20040;-85
2023/10/11 13:16:51;;;;;;;12.38;5.03;;;19.00;1.00;;;;;;5095243;27;20047;-83
2023/10/11 13:19:22;;;;;;;8.02;3.45;;;19.00;1.00;;;;;;5096385;27;20186;-85
2023/10/11 13:21:48;;;;;;;7.95;3.70;;;;;;;;;;5079282;27;20496;-82
2023/10/11 13:24:21;;;;;;;11.50;5.25;;;19.10;1.80;;;;;;5068100;28;21459;-84
2023/10/11 13:26:48;;;;;;;15.95;4.40;;;;;;;;;;5068804;28;20400;-83
2023/10/11 13:29:17;;;;;;;6.85;3.67;;;;;;;;;;5066567;28;20043;-83
2023/10/11 13:31:56;;;;;;;11.20;3.72;;;19.00;1.00;;;;;;5085838;28;20116;-89
2023/10/11 13:34:29;;;;;;;8.15;3.47;;;19.00;1.00;;;;;;5086788;28;20051;-87
2023/10/11 13:36:59;;;;;;;7.70;3.55;;;;;;;;;;5081950;28;20792;-83
2023/10/11 13:39:25;;;;;;;9.15;3.53;;;18.90;1.00;;;;;;5064199;28;20047;-85
2023/10/11 13:42:09;;;;;;;10.35;4.63;;;18.80;2.30;;;;;;5080293;28;20040;-83
2023/10/11 13:44:37;;;;;;;6.85;2.90;;;;;;;;;;5065467;28;20043;-85
2023/10/11 13:47:04;;;;;;;10.15;4.18;;;19.00;1.00;;;;;;5082557;28;20508;-84
2023/10/11 13:49:36;;;;;;;7.30;3.33;;;;;;;;;;5083276;28;20112;-84
2023/10/11 13:52:03;;;;;;;10.00;3.90;;;;;;;;;;5063438;28;20052;-86
2023/10/11 13:55:14;;;;;;;11.75;5.30;;;19.20;6.20;;;;;;5083117;28;20492;-86
2023/10/11 13:57:21;;;;;;;12.00;4.63;;;;;;;;;;5073728;28;20477;-83
2023/10/11 13:59:53;;;;;;;6.32;3.58;;;;;;;;;;5065646;28;20055;-83
2023/10/11 14:05:13;;;;;;;12.35;5.35;;;;;;;;;;5086001;28;20401;-83
2023/10/11 14:07:50;;;;;;;12.13;3.55;;;;;;;;;;5078951;28;20048;-86
2023/10/11 14:10:22;;;;;;;11.85;4.15;;;19.10;2.70;;;;;;5063748;28;20573;-83
2023/10/11 14:12:48;;;;;;;15.80;3.92;;;;;;;;;;5080536;28;20446;-82
2023/10/11 14:15:18;;;;;;;10.23;3.38;;;;;;;;;;5080955;28;20040;-85
2023/10/11 14:17:49;;;;;;;9.20;3.30;;;19.20;1.00;;;;;;5080703;28;20048;-83
2023/10/11 14:20:23;;;;;;;10.73;4.15;;;19.30;1.90;;;;;;5079190;28;20075;-81
2023/10/11 14:22:53;;;;;;;8.52;4.50;;;;;;;;;;5071538;28;20102;-80
2023/10/11 14:25:20;;;;;;;9.52;3.92;;;19.10;1.30;;;;;;5062982;28;20127;-83
2023/10/11 14:27:49;;;;;;;8.25;3.25;;;19.30;1.00;;;;;;5062902;28;20456;-84
2023/10/11 14:30:15;;;;;;;8.48;4.07;;;;;;;;;;5081671;28;20054;-85
2023/10/11 14:32:44;;;;;;;9.30;3.85;;;;;;;;;;5080112;28;20131;-84
2023/10/11 14:35:12;;;;;;;10.02;3.80;;;19.20;1.00;;;;;;5062893;28;20059;-81
2023/10/11 14:37:41;;;;;;;12.20;3.08;;;;;;;;;;5062190;28;20101;-83
2023/10/11 14:40:16;;;;;;;7.82;4.00;;;19.20;1.60;;;;;;5063248;28;20040;-82
2023/10/11 14:42:43;;;;;;;12.07;4.05;;;;;;;;;;5062475;28;20048;-83
2023/10/11 14:45:11;;;;;;;10.27;3.92;;;19.30;1.00;;;;;;5079637;28;20301;-81
2023/10/11 14:47:48;;;;;;;9.75;3.40;;;19.20;1.70;;;;;;5079142;28;20115;-83
2023/10/11 14:50:23;;;;;;;11.27;3.85;;;19.20;3.30;;;;;;5079153;28;20040;-82
2023/10/11 14:52:49;;;;;;;13.00;3.63;;;19.10;1.80;;;;;;5079822;28;20450;-84
2023/10/11 14:55:16;;;;;;;14.38;3.45;;;;;;;;;;5079267;28;20075;-86
2023/10/11 14:57:51;;;;;;;12.52;4.60;;;19.20;1.00;;;;;;5081316;28;20043;-81
2023/10/11 15:00:23;;;;;;;10.10;3.95;;;18.90;1.40;;;;;;5079619;28;20051;-80
2023/10/11 15:02:51;;;;;;;15.07;3.92;;;19.10;2.80;;;;;;5078375;28;20712;-81
2023/10/11 15:05:17;;;;;;;16.00;4.93;;;;;;;;;;5078629;28;20036;-84
2023/10/11 15:07:51;;;;;;;12.73;4.05;;;19.00;5.50;;;;;;5079915;28;20050;-85
2023/10/11 15:10:20;;;;;;;14.60;4.38;;;;;;;;;;5078957;28;20040;-81